createdAt,value
2019-04-23T00:02:48.843Z,49.60
2019-04-23T00:05:30.487Z,49.80
2019-04-23T00:10:19.474Z,49.90
2019-04-23T00:12:49.556Z,50.00
2019-04-23T00:15:30.780Z,50.00
2019-04-23T00:20:14.715Z,49.60
2019-04-23T00:23:02.458Z,50.00
2019-04-23T00:25:49.756Z,50.20
2019-04-23T00:30:42.814Z,50.50
2019-04-23T00:33:07.462Z,50.30
2019-04-23T00:35:37.183Z,50.10
2019-04-23T00:38:09.072Z,50.10
2019-04-23T00:40:32.055Z,49.90
2019-04-23T00:43:01.954Z,49.70
2019-04-23T00:45:33.124Z,50.10
2019-04-23T00:47:54.806Z,50.20
2019-04-23T00:53:01.997Z,50.00
2019-04-23T00:55:29.911Z,50.20
2019-04-23T00:58:03.172Z,50.00
2019-04-23T01:00:35.364Z,50.10
2019-04-23T01:02:59.095Z,50.30
2019-04-23T01:08:00.003Z,50.00
2019-04-23T01:10:37.477Z,50.30
2019-04-23T01:13:22.740Z,50.10
2019-04-23T01:15:39.768Z,50.20
2019-04-23T01:18:14.179Z,50.20
2019-04-23T01:20:39.040Z,50.10
2019-04-23T01:22:46.328Z,49.90
2019-04-23T01:25:33.892Z,50.20
2019-04-23T01:28:23.622Z,50.40
2019-04-23T01:30:59.742Z,50.40
2019-04-23T01:33:27.540Z,50.50
2019-04-23T01:36:01.031Z,50.70
2019-04-23T01:38:20.845Z,51.10
2019-04-23T01:41:00.326Z,51.70
2019-04-23T01:43:16.419Z,52.00
2019-04-23T01:45:35.577Z,52.30
2019-04-23T01:48:12.489Z,52.60
2019-04-23T01:50:48.382Z,52.60
2019-04-23T01:58:25.873Z,52.60
2019-04-23T02:00:45.134Z,52.50
2019-04-23T02:03:16.627Z,52.70
2019-04-23T02:05:42.645Z,52.50
2019-04-23T02:08:08.281Z,52.60
2019-04-23T02:10:49.016Z,52.60
2019-04-23T02:15:41.350Z,52.40
2019-04-23T02:18:11.480Z,52.70
2019-04-23T02:20:44.409Z,52.40
2019-04-23T02:25:50.820Z,52.30
2019-04-23T02:28:19.892Z,52.30
2019-04-23T02:33:34.395Z,52.50
2019-04-23T02:38:31.570Z,52.80
2019-04-23T02:41:05.281Z,52.60
2019-04-23T02:43:16.851Z,52.60
2019-04-23T02:53:30.658Z,52.60
2019-04-23T02:58:30.260Z,53.20
2019-04-23T03:03:38.283Z,52.80
2019-04-23T03:13:32.502Z,52.90
2019-04-23T03:21:19.610Z,53.20
2019-04-23T03:23:52.181Z,53.30
2019-04-23T03:26:29.734Z,53.30
2019-04-23T03:28:42.957Z,53.30
2019-04-23T03:32:52.020Z,54.00
2019-04-23T03:34:34.956Z,53.50
2019-04-23T03:38:43.064Z,53.70
2019-04-23T03:46:24.399Z,53.90
2019-04-23T03:50:53.462Z,53.90
2019-04-23T03:53:52.874Z,53.90
2019-04-23T03:56:05.513Z,54.10
2019-04-23T04:01:07.491Z,54.00
2019-04-23T04:03:53.005Z,54.00
2019-04-23T04:11:02.466Z,54.30
2019-04-23T04:25:56.657Z,54.70
2019-04-23T04:33:33.975Z,54.80
2019-04-23T04:35:46.633Z,55.10
2019-04-23T04:40:55.156Z,55.10
2019-04-23T04:48:20.370Z,55.40
2019-04-23T04:50:53.028Z,55.50
2019-04-23T04:53:43.806Z,55.60
2019-04-23T05:01:03.960Z,55.70
2019-04-23T05:08:26.286Z,55.80
2019-04-23T05:10:52.140Z,55.90
2019-04-23T05:13:32.098Z,56.20
2019-04-23T05:15:58.594Z,56.00
2019-04-23T05:18:27.176Z,56.00
2019-04-23T05:21:06.099Z,56.10
2019-04-23T05:23:54.477Z,56.10
2019-04-23T05:26:20.978Z,56.10
2019-04-23T05:28:55.508Z,56.20
2019-04-23T05:33:49.242Z,56.20
2019-04-23T05:36:22.843Z,56.40
2019-04-23T05:38:51.120Z,56.60
2019-04-23T05:41:20.023Z,56.60
2019-04-23T05:43:39.613Z,56.60
2019-04-23T05:46:15.307Z,56.60
2019-04-23T05:48:37.593Z,57.00
2019-04-23T05:51:16.121Z,56.80
2019-04-23T05:53:39.715Z,57.20
2019-04-23T05:56:06.480Z,57.00
2019-04-23T05:58:36.955Z,56.80
2019-04-23T06:03:56.988Z,57.00
2019-04-23T06:06:31.669Z,56.30
2019-04-23T06:08:52.886Z,56.70
2019-04-23T06:11:28.139Z,56.50
2019-04-23T06:14:00.316Z,56.30
2019-04-23T06:16:22.186Z,56.30
2019-04-23T06:18:56.896Z,56.70
2019-04-23T06:21:18.814Z,56.70
2019-04-23T06:26:25.565Z,56.70
2019-04-23T06:28:50.746Z,56.70
2019-04-23T06:31:15.909Z,56.30
2019-04-23T06:34:04.185Z,56.40
2019-04-23T06:36:15.800Z,56.30
2019-04-23T06:38:55.001Z,55.70
2019-04-23T06:41:16.744Z,55.90
2019-04-23T06:44:15.934Z,56.00
2019-04-23T06:49:00.834Z,55.50
2019-04-23T06:51:34.888Z,55.20
2019-04-23T06:54:04.580Z,55.80
2019-04-23T06:56:33.510Z,55.50
2019-04-23T06:59:02.445Z,55.40
2019-04-23T07:01:27.965Z,55.70
2019-04-23T07:03:56.972Z,55.20
2019-04-23T07:06:29.894Z,55.20
2019-04-23T07:09:09.894Z,55.40
2019-04-23T07:11:33.886Z,54.90
2019-04-23T07:16:21.556Z,54.60
2019-04-23T07:18:57.561Z,55.10
2019-04-23T07:21:23.583Z,54.60
2019-04-23T07:26:29.876Z,55.20
2019-04-23T07:28:56.248Z,55.00
2019-04-23T07:36:24.280Z,54.10
2019-04-23T07:39:17.601Z,54.60
2019-04-23T07:42:06.120Z,53.90
2019-04-23T07:44:54.486Z,54.00
2019-04-23T07:47:42.175Z,53.40
2019-04-23T07:50:12.850Z,53.80
2019-04-23T07:52:33.718Z,53.50
2019-04-23T07:55:02.621Z,53.20
2019-04-23T07:57:40.116Z,53.10
2019-04-23T07:59:56.376Z,53.50
2019-04-23T08:02:28.363Z,53.00
2019-04-23T08:07:19.837Z,52.30
2019-04-23T08:09:54.684Z,52.10
2019-04-23T08:12:25.137Z,52.60
2019-04-23T08:14:55.362Z,52.50
2019-04-23T08:17:20.913Z,52.60
2019-04-23T08:24:55.508Z,52.90
2019-04-23T08:30:00.690Z,52.90
2019-04-23T08:32:21.273Z,53.20
2019-04-23T08:35:01.726Z,52.10
2019-04-23T08:42:36.678Z,50.80
2019-04-23T08:50:40.736Z,50.00
2019-04-23T08:53:22.628Z,49.90
2019-04-23T08:55:46.863Z,49.80
2019-04-23T08:58:13.379Z,50.60
2019-04-23T09:00:49.729Z,50.80
2019-04-23T09:03:25.313Z,50.60
2019-04-23T09:05:46.811Z,51.30
2019-04-23T09:08:17.177Z,50.50
2019-04-23T09:10:42.312Z,50.90
2019-04-23T09:13:35.265Z,50.50
2019-04-23T09:18:09.314Z,50.30
2019-04-23T09:20:30.633Z,49.40
2019-04-23T09:23:02.804Z,48.90
2019-04-23T09:25:40.864Z,47.50
2019-04-23T09:28:11.213Z,47.90
2019-04-23T09:30:33.199Z,49.80
2019-04-23T09:33:37.744Z,48.70
2019-04-23T09:36:08.319Z,48.30
2019-04-23T09:38:46.850Z,48.30
2019-04-23T09:41:33.054Z,48.60
2019-04-23T09:44:56.253Z,47.50
2019-04-23T09:47:34.223Z,47.90
2019-04-23T09:50:01.798Z,48.50
2019-04-23T09:52:28.402Z,48.20
2019-04-23T09:55:04.900Z,47.40
2019-04-23T09:57:24.442Z,47.20
2019-04-23T09:59:58.172Z,47.00
2019-04-23T10:02:16.061Z,48.00
2019-04-23T10:04:41.164Z,47.80
2019-04-23T10:07:11.253Z,47.80
2019-04-23T10:09:27.379Z,47.80
2019-04-23T10:11:55.505Z,48.40
2019-04-23T10:14:24.134Z,47.40
2019-04-23T10:16:53.288Z,48.30
2019-04-23T10:19:22.272Z,47.70
2019-04-23T10:21:51.241Z,47.50
2019-04-23T10:24:19.170Z,47.90
2019-04-23T10:26:48.050Z,47.10
2019-04-23T10:29:20.618Z,47.40
2019-04-23T10:31:49.353Z,48.20
2019-04-23T10:34:18.862Z,48.00
2019-04-23T10:36:47.370Z,47.60
2019-04-23T10:39:21.344Z,48.00
2019-04-23T10:41:46.354Z,48.30
2019-04-23T10:44:32.982Z,47.90
2019-04-23T10:47:53.923Z,48.50
2019-04-23T10:50:39.986Z,47.80
2019-04-23T10:53:09.759Z,48.50
2019-04-23T10:55:34.988Z,48.20
2019-04-23T10:57:56.670Z,47.90
2019-04-23T11:00:32.274Z,47.60
2019-04-23T11:02:58.436Z,47.60
2019-04-23T11:05:36.169Z,47.30
2019-04-23T11:07:43.410Z,47.30
2019-04-23T11:10:22.019Z,47.90
2019-04-23T11:12:50.746Z,47.60
2019-04-23T11:20:30.201Z,48.20
2019-04-23T11:22:58.474Z,47.90
2019-04-23T11:25:32.991Z,46.30
2019-04-23T11:27:59.720Z,47.80
2019-04-23T11:33:05.038Z,46.50
2019-04-23T11:38:06.478Z,46.40
2019-04-23T11:43:09.419Z,46.20
2019-04-23T11:50:31.003Z,48.30
2019-04-23T12:00:28.507Z,45.80
2019-04-23T12:02:51.190Z,45.70
2019-04-23T12:05:41.403Z,44.20
2019-04-23T12:08:26.766Z,45.40
2019-04-23T12:11:35.167Z,45.60
2019-04-23T12:13:43.462Z,45.20
2019-04-23T12:16:14.306Z,45.30
2019-04-23T12:21:13.097Z,45.40
2019-04-23T12:23:54.673Z,44.60
2019-04-23T12:26:15.515Z,44.50
2019-04-23T12:28:40.239Z,45.30
2019-04-23T12:31:10.043Z,44.90
2019-04-23T12:33:44.036Z,44.90
2019-04-23T12:36:29.263Z,45.60
2019-04-23T12:38:49.246Z,45.30
2019-04-23T12:41:21.100Z,43.50
2019-04-23T12:43:50.341Z,43.30
2019-04-23T12:46:16.544Z,43.70
2019-04-23T12:48:56.812Z,43.20
2019-04-23T12:51:17.142Z,43.80
2019-04-23T12:53:39.841Z,44.00
2019-04-23T12:56:21.035Z,43.60
2019-04-23T12:58:33.894Z,44.30
2019-04-23T13:01:13.485Z,45.00
2019-04-23T13:03:41.235Z,45.20
2019-04-23T13:06:10.663Z,44.20
2019-04-23T13:08:46.184Z,44.00
2019-04-23T13:11:31.518Z,44.10
2019-04-23T13:16:12.424Z,44.50
2019-04-23T13:18:39.500Z,45.80
2019-04-23T13:21:06.942Z,44.50
2019-04-23T13:23:37.591Z,44.80
2019-04-23T13:25:59.686Z,44.70
2019-04-23T13:31:12.701Z,45.50
2019-04-23T13:33:42.158Z,45.30
2019-04-23T13:36:08.400Z,44.70
2019-04-23T13:38:37.926Z,44.00
2019-04-23T13:41:13.091Z,44.90
2019-04-23T13:44:33.954Z,44.00
2019-04-23T13:46:06.897Z,44.10
2019-04-23T13:48:27.645Z,44.00
2019-04-23T13:56:15.203Z,45.30
2019-04-23T13:58:26.732Z,43.20
2019-04-23T14:03:35.759Z,43.60
2019-04-23T14:08:47.501Z,44.00
2019-04-23T14:11:24.329Z,45.20
2019-04-23T14:13:45.681Z,45.20
2019-04-23T14:16:31.477Z,45.80
2019-04-23T14:18:51.625Z,45.80
2019-04-23T14:21:14.170Z,45.20
2019-04-23T14:23:57.832Z,45.30
2019-04-23T14:26:23.257Z,44.40
2019-04-23T14:28:36.957Z,45.20
2019-04-23T14:36:05.271Z,44.70
2019-04-23T14:38:30.882Z,43.90
2019-04-23T14:43:30.905Z,45.60
2019-04-23T14:51:14.873Z,43.60
2019-04-23T14:53:39.771Z,43.80
2019-04-23T14:58:42.549Z,44.70
2019-04-23T15:03:40.257Z,44.20
2019-04-23T15:06:12.442Z,44.20
2019-04-23T15:08:41.622Z,45.10
2019-04-23T15:11:13.178Z,44.80
2019-04-23T15:16:09.866Z,44.20
2019-04-23T15:19:13.008Z,43.80
2019-04-23T15:21:46.726Z,44.40
2019-04-23T15:28:29.145Z,44.60
2019-04-23T15:31:20.766Z,44.20
2019-04-23T15:33:55.454Z,43.80
2019-04-23T15:36:32.137Z,44.40
2019-04-23T15:41:15.305Z,44.70
2019-04-23T15:43:53.153Z,45.20
2019-04-23T15:46:21.526Z,45.30
2019-04-23T15:48:50.581Z,46.00
2019-04-23T15:51:25.867Z,44.70
2019-04-23T15:53:31.127Z,45.70
2019-04-23T15:58:46.443Z,45.50
2019-04-23T16:01:21.845Z,45.90
2019-04-23T16:03:20.310Z,45.70
2019-04-23T16:05:47.050Z,46.30
2019-04-23T16:08:56.369Z,46.20
2019-04-23T16:11:25.329Z,46.50
2019-04-23T16:13:50.952Z,46.30
2019-04-23T16:16:20.659Z,46.50
2019-04-23T16:18:49.904Z,46.80
2019-04-23T16:23:53.517Z,46.60
2019-04-23T16:26:27.280Z,46.60
2019-04-23T16:29:07.365Z,46.60
2019-04-23T16:31:20.780Z,46.90
2019-04-23T16:33:58.872Z,47.50
2019-04-23T16:36:25.317Z,47.00
2019-04-23T16:38:52.116Z,46.70
2019-04-23T16:41:17.602Z,46.80
2019-04-23T16:43:48.713Z,47.00
2019-04-23T16:46:18.106Z,47.40
2019-04-23T16:51:24.151Z,47.60
2019-04-23T16:53:35.763Z,48.40
2019-04-23T16:58:54.583Z,48.50
2019-04-23T17:01:23.013Z,47.90
2019-04-23T17:06:27.259Z,47.60
2019-04-23T17:08:53.953Z,48.00
2019-04-23T17:11:15.675Z,47.70
2019-04-23T17:13:58.989Z,47.70
2019-04-23T17:18:37.620Z,48.00
2019-04-23T17:21:12.144Z,49.00
2019-04-23T17:26:13.657Z,49.00
2019-04-23T17:28:39.414Z,49.60
2019-04-23T17:41:48.473Z,49.00
2019-04-23T17:46:46.678Z,49.50
2019-04-23T17:49:13.197Z,50.10
2019-04-23T17:51:37.749Z,50.20
2019-04-23T17:54:10.981Z,50.20
2019-04-23T17:56:49.392Z,50.60
2019-04-23T18:01:36.009Z,50.80
2019-04-23T18:04:10.398Z,51.10
2019-04-23T18:09:14.240Z,51.30
2019-04-23T18:11:54.013Z,51.50
2019-04-23T18:14:07.777Z,51.70
2019-04-23T18:16:41.671Z,52.10
2019-04-23T18:19:08.122Z,52.00
2019-04-23T18:21:50.747Z,52.10
2019-04-23T18:24:51.179Z,52.40
2019-04-23T18:30:15.539Z,53.00
2019-04-23T18:35:28.332Z,53.50
2019-04-23T18:37:56.488Z,54.00
2019-04-23T18:40:21.489Z,54.10
2019-04-23T18:43:02.593Z,54.30
2019-04-23T18:45:31.676Z,54.20
2019-04-23T18:47:56.588Z,54.80
2019-04-23T18:50:37.705Z,55.00
2019-04-23T18:52:58.501Z,55.00
2019-04-23T18:55:37.130Z,55.20
2019-04-23T18:57:58.953Z,56.00
2019-04-23T19:00:25.087Z,55.80
2019-04-23T19:03:19.871Z,55.80
2019-04-23T19:06:07.141Z,55.80
2019-04-23T19:08:53.482Z,56.60
2019-04-23T19:11:42.666Z,57.90
2019-04-23T19:13:52.637Z,57.50
2019-04-23T19:16:24.253Z,56.90
2019-04-23T19:18:56.324Z,57.40
2019-04-23T19:21:29.913Z,56.90
2019-04-23T19:26:40.537Z,57.10
2019-04-23T19:29:03.442Z,57.30
2019-04-23T19:31:34.492Z,57.20
2019-04-23T19:34:14.190Z,57.30
2019-04-23T19:36:39.923Z,57.90
2019-04-23T19:39:12.754Z,59.10
2019-04-23T19:41:39.427Z,58.20
2019-04-23T19:44:02.869Z,58.30
2019-04-23T19:49:05.437Z,58.30
2019-04-23T19:51:33.782Z,58.30
2019-04-23T19:54:14.376Z,58.20
2019-04-23T20:11:27.819Z,60.20
2019-04-23T20:16:37.042Z,60.40
2019-04-23T20:21:19.486Z,60.30
2019-04-23T20:24:03.991Z,60.20
2019-04-23T20:26:17.002Z,60.20
2019-04-23T20:29:19.289Z,60.30
2019-04-23T20:36:52.693Z,60.20
2019-04-23T20:39:21.558Z,60.60
2019-04-23T20:44:35.913Z,61.40
2019-04-23T20:47:01.920Z,61.40
2019-04-23T20:49:31.370Z,61.90
2019-04-23T20:52:00.147Z,61.90
2019-04-23T20:54:34.928Z,61.70
2019-04-23T20:57:02.107Z,62.40
2019-04-23T20:59:22.508Z,63.10
2019-04-23T21:02:11.280Z,62.50
2019-04-23T21:04:39.705Z,63.10
2019-04-23T21:06:57.977Z,63.20
2019-04-23T21:09:44.570Z,62.80
2019-04-23T21:14:48.506Z,63.50
2019-04-23T21:16:54.892Z,63.50
2019-04-23T21:19:35.678Z,63.90
2019-04-23T21:22:09.865Z,63.60
2019-04-23T21:24:42.420Z,63.60
2019-04-23T21:27:21.944Z,63.30
2019-04-23T21:29:53.700Z,63.30
2019-04-23T21:32:27.145Z,63.40
2019-04-23T21:34:59.833Z,64.10
2019-04-23T21:37:42.837Z,64.50
2019-04-23T21:40:40.541Z,64.60
2019-04-23T21:43:00.932Z,65.20
2019-04-23T21:45:35.693Z,64.30
2019-04-23T21:50:41.016Z,64.20
2019-04-23T21:52:56.400Z,64.00
2019-04-23T21:55:34.832Z,64.00
2019-04-23T21:58:01.301Z,64.60
2019-04-23T22:00:34.605Z,64.70
2019-04-23T22:05:25.388Z,66.40
2019-04-23T22:08:03.177Z,65.50
2019-04-23T22:10:19.564Z,65.50
2019-04-23T22:13:02.170Z,66.20
2019-04-23T22:15:20.215Z,66.00
2019-04-23T22:17:50.194Z,66.50
2019-04-23T22:22:58.807Z,66.90
2019-04-23T22:25:13.094Z,66.80
2019-04-23T22:27:48.418Z,67.00
2019-04-23T22:30:16.470Z,67.30
2019-04-23T22:32:52.070Z,67.80
2019-04-23T22:37:42.372Z,68.00
2019-04-23T22:40:04.418Z,68.50
2019-04-23T22:45:10.210Z,69.20
2019-04-23T22:47:39.291Z,69.60
2019-04-23T22:50:05.820Z,69.60
2019-04-23T22:52:40.803Z,69.50
2019-04-23T22:55:07.837Z,69.60
2019-04-23T22:58:01.434Z,70.00
2019-04-23T23:00:14.614Z,70.10
2019-04-23T23:05:56.400Z,70.50
2019-04-23T23:10:44.129Z,70.60
2019-04-23T23:15:45.033Z,71.00
2019-04-23T23:20:47.923Z,71.40
2019-04-23T23:23:13.157Z,72.10
2019-04-23T23:30:49.362Z,72.70
2019-04-23T23:35:34.555Z,72.70
2019-04-23T23:38:09.783Z,73.00
2019-04-23T23:40:36.167Z,74.00
2019-04-23T23:43:14.566Z,73.60
2019-04-23T23:45:35.493Z,73.60
2019-04-23T23:48:06.650Z,73.50
2019-04-23T23:50:36.108Z,73.80
2019-04-23T23:53:02.813Z,73.60
2019-04-23T23:55:27.439Z,73.60
2019-04-23T23:58:10.901Z,73.80
